Alhani — 5AXF — position and weather

sailwx.info

Track history (hours):
 
Tides and Currents Weather Stations Pressure Air Temp Water Temp Dewpoint Dewpoint Depression Visibility Wind Speed Wind Dir Waves Ship Positions

Alhani

Last reported at 2018-Feb-21 10:09 UTC. Time now 2018-Feb-22 10:57 UTC.
Position N 51°55' E 004°12'.

Length 249 m; draft 13.8 m.

Type: Ship (hazmat cat C). MMSI: 642122020.

Date/timePositionNaut miles runAvg speedWind from/ knotsBaromVisibWave heightAir tempDewpointWater temp
2018-Feb-21 10:09N 51°55' E 004°12'0 0.0
2018-Feb-21 07:43N 51°55' E 004°12'0 0.0
2018-Feb-21 07:30N 51°55' E 004°12'0 0.4
2018-Feb-21 07:00N 51°55' E 004°12'2 4.6
2018-Feb-21 06:30N 51°57' E 004°10'4 7.9
2018-Feb-21 06:00N 51°59' E 004°04'510.1
2018-Feb-21 05:30N 52°00' E 003°56'420 9.4
2018-Feb-19 08:43N 57°48' E 010°46'2 9.8
2018-Feb-19 08:30N 57°46' E 010°49'3 6.2
2018-Feb-19 08:00N 57°43' E 010°52'4 9.0
2018-Feb-19 07:30N 57°41' E 010°60'511.2
2018-Feb-19 07:00N 57°38' E 011°07'712.1
2018-Feb-19 06:28N 57°33' E 011°16'511.7
2018-Feb-19 06:00N 57°30' E 011°24'511.0
2018-Feb-19 05:30N 57°24' E 011°26'611.7
2018-Feb-19 05:00N 57°19' E 011°31'712.0
2018-Feb-19 04:27N 57°13' E 011°36'12510.7
2018-Feb-18 16:43N 55°10' E 011°01'312.2
2018-Feb-18 16:30N 55°07' E 010°59'612.0
2018-Feb-18 16:00N 55°01' E 010°59'511.1
2018-Feb-18 15:30N 54°57' E 010°54'5 9.6
2018-Feb-18 15:00N 54°52' E 010°50'611.9
2018-Feb-18 14:30N 54°46' E 010°49'611.4
2018-Feb-18 14:00N 54°41' E 010°47'611.6
2018-Feb-18 13:30N 54°38' E 010°56'611.6
2018-Feb-18 13:00N 54°36' E 011°05'612.0
2018-Feb-18 12:30N 54°34' E 011°15'612.1
2018-Feb-18 12:00N 54°32' E 011°25'711.8
2018-Feb-18 11:24N 54°29' E 011°36'611.6
2018-Feb-18 10:55N 54°27' E 011°45'511.6
2018-Feb-18 10:29N 54°26' E 011°54'611.9
2018-Feb-18 10:00N 54°26' E 012°03'83 9.9
2018-Feb-18 01:40N 55°07' E 014°08'312.1
2018-Feb-18 01:24N 55°10' E 014°12'911.6
2018-Feb-18 00:39N 55°16' E 014°22'712.2
2018-Feb-18 00:06N 55°21' E 014°29'512.2
2018-Feb-17 23:43N 55°25' E 014°34'612.1
2018-Feb-17 23:13N 55°28' E 014°44'412.2
2018-Feb-17 22:54N 55°29' E 014°50'712.2
2018-Feb-17 22:19N 55°33' E 015°01'612.1
2018-Feb-17 21:49N 55°36' E 015°10'512.0
2018-Feb-17 21:22N 55°38' E 015°19'412.1
2018-Feb-17 21:00N 55°39' E 015°27'1012.0
2018-Feb-17 20:12N 55°41' E 015°43'212.1
2018-Feb-17 20:00N 55°42' E 015°48'612.1
2018-Feb-17 19:30N 55°44' E 015°58'612.2
2018-Feb-17 19:00N 55°45' E 016°08'612.1
2018-Feb-17 18:30N 55°47' E 016°19'32511.5
2018-Feb-16 14:23N 59°39' E 023°23'512.2
2018-Feb-16 13:58N 59°40' E 023°33'612.4
2018-Feb-16 13:30N 59°42' E 023°44'812.4
2018-Feb-16 12:53N 59°44' E 023°59'1013.3
2018-Feb-16 12:07N 59°47' E 024°18'212.3
2018-Feb-16 11:59N 59°47' E 024°21'612.7
2018-Feb-16 11:29N 59°49' E 024°34'612.2
2018-Feb-16 10:58N 59°50' E 024°46'4412.3
2018-Feb-16 07:21N 59°59' E 026°13'412.2
2018-Feb-16 07:00N 59°60' E 026°21'611.2
2018-Feb-16 06:28N 60°01' E 026°33'511.1
2018-Feb-16 06:00N 60°01' E 026°43'713.0
2018-Feb-16 05:28N 59°60' E 026°57'611.3
2018-Feb-16 04:54N 60°01' E 027°09'511.5
2018-Feb-16 04:28N 60°04' E 027°18'511.0
2018-Feb-16 03:59N 60°06' E 027°27'5 9.9
2018-Feb-16 03:29N 60°09' E 027°35'4 9.1
2018-Feb-16 03:00N 60°11' E 027°43'5 8.8
2018-Feb-16 02:28N 60°11' E 027°53'4 8.8
2018-Feb-16 02:00N 60°10' E 028°01'4 8.2
2018-Feb-16 01:30N 60°09' E 028°09'6 9.5
2018-Feb-16 00:54N 60°07' E 028°20'3 7.6
2018-Feb-16 00:28N 60°05' E 028°25'5 9.7
2018-Feb-15 23:56N 60°03' E 028°34'4 9.1
2018-Feb-15 23:30N 59°59' E 028°36'4 7.5
2018-Feb-15 23:00N 59°56' E 028°34'4 7.1
2018-Feb-15 22:30N 59°53' E 028°30'510.7
2018-Feb-15 22:00N 59°48' E 028°25'4 7.5
2018-Feb-15 21:30N 59°44' E 028°25'2 3.5
2018-Feb-15 21:00N 59°42' E 028°26'0 0.1
2018-Feb-15 20:28N 59°42' E 028°26'0 0.0
2018-Feb-15 19:59N 59°42' E 028°26'0 0.0
2018-Feb-15 19:29N 59°42' E 028°26'0 0.0
2018-Feb-15 18:59N 59°42' E 028°26'0 0.0
2018-Feb-15 18:17N 59°42' E 028°26'0 0.0
2018-Feb-15 17:50N 59°42' E 028°26'0 0.0
2018-Feb-15 17:20N 59°42' E 028°26'0 0.0
2018-Feb-15 16:50N 59°42' E 028°26'0 0.0
2018-Feb-15 16:20N 59°42' E 028°26'0 0.0
2018-Feb-15 15:53N 59°42' E 028°26'0 0.0
2018-Feb-15 15:23N 59°42' E 028°26'0 0.0
2018-Feb-15 14:47N 59°42' E 028°26'0 0.0
2018-Feb-15 14:23N 59°42' E 028°26'0 0.0
2018-Feb-15 13:53N 59°42' E 028°26'0 0.0
2018-Feb-15 13:20N 59°42' E 028°26'0 0.0
2018-Feb-15 12:53N 59°42' E 028°26'0 0.0
2018-Feb-15 12:23N 59°42' E 028°26'0 0.0
2018-Feb-15 11:53N 59°42' E 028°26'0 0.0
2018-Feb-15 11:23N 59°42' E 028°26'0 0.0
2018-Feb-15 10:56N 59°42' E 028°26'0 0.0
2018-Feb-15 10:11N 59°42' E 028°26'0 0.0
2018-Feb-15 09:56N 59°42' E 028°26'0 0.0
2018-Feb-15 09:26N 59°42' E 028°26'0 0.0
2018-Feb-15 08:53N 59°42' E 028°26'0 0.0
2018-Feb-15 08:26N 59°42' E 028°26'0 0.0
2018-Feb-15 07:56N 59°42' E 028°26'0 0.0
2018-Feb-15 07:26N 59°42' E 028°26'0 0.0
2018-Feb-15 06:56N 59°42' E 028°26'0 0.0
2018-Feb-15 06:23N 59°42' E 028°26'0 0.0
2018-Feb-15 05:59N 59°42' E 028°26'0 0.0
2018-Feb-15 05:29N 59°42' E 028°26'0 0.0
2018-Feb-15 04:59N 59°42' E 028°26'0 0.0
2018-Feb-15 04:26N 59°42' E 028°26'0 0.0
2018-Feb-15 03:59N 59°42' E 028°26'0 0.0
2018-Feb-15 03:29N 59°42' E 028°26'0 0.0
2018-Feb-15 02:59N 59°42' E 028°26'0 0.0
2018-Feb-15 02:29N 59°42' E 028°26'0 0.0
2018-Feb-15 01:58N 59°42' E 028°26'0 0.0
2018-Feb-15 01:28N 59°42' E 028°26'0 0.0
2018-Feb-15 00:58N 59°42' E 028°26'0 0.0
2018-Feb-15 00:28N 59°42' E 028°26'0 0.0
2018-Feb-14 23:58N 59°42' E 028°26'0 0.0
2018-Feb-14 23:28N 59°42' E 028°26'0 0.0
2018-Feb-14 22:58N 59°42' E 028°26'0 0.0
2018-Feb-14 22:28N 59°42' E 028°26'0 0.0
2018-Feb-14 21:58N 59°42' E 028°26'0 0.0
2018-Feb-14 21:28N 59°42' E 028°26'0 0.0
2018-Feb-14 20:58N 59°42' E 028°26'0 0.0
2018-Feb-14 20:28N 59°42' E 028°26'0 0.0
2018-Feb-14 19:58N 59°42' E 028°26'0 0.0
2018-Feb-14 19:28N 59°42' E 028°26'0 0.0
2018-Feb-14 18:58N 59°42' E 028°26'0 0.0
2018-Feb-14 18:28N 59°42' E 028°26'0 0.0
2018-Feb-14 17:58N 59°42' E 028°26'0 0.0
2018-Feb-14 17:19N 59°42' E 028°26'0 0.0
2018-Feb-14 16:49N 59°42' E 028°26'0 0.0
2018-Feb-14 16:19N 59°42' E 028°26'0 0.0
2018-Feb-14 15:49N 59°42' E 028°26'0 0.0
2018-Feb-14 15:19N 59°42' E 028°26'0 0.0
2018-Feb-14 14:52N 59°42' E 028°26'0 0.0
2018-Feb-14 14:25N 59°42' E 028°26'0 0.1
2018-Feb-14 14:00N 59°42' E 028°26'1 2.1
2018-Feb-14 13:30N 59°41' E 028°24'3 6.3
2018-Feb-14 13:00N 59°45' E 028°24'5 9.9
2018-Feb-14 12:30N 59°49' E 028°25'611.6
2018-Feb-14 12:00N 59°54' E 028°31'4 7.9
2018-Feb-14 11:30N 59°56' E 028°39'0 0.3
2018-Feb-14 09:58N 59°56' E 028°39'0 0.0
2018-Feb-14 09:16N 59°56' E 028°39'0 0.0
2018-Feb-14 08:46N 59°56' E 028°39'0 0.0
2018-Feb-14 08:28N 59°56' E 028°39'0 0.0
2018-Feb-14 07:58N 59°56' E 028°39'0 0.0
2018-Feb-14 07:31N 59°56' E 028°39'0 0.0
2018-Feb-14 06:46N 59°56' E 028°39'0 0.0
2018-Feb-14 06:12N 59°56' E 028°39'0 0.0
2018-Feb-14 06:00N 59°56' E 028°39'0 0.0
2018-Feb-14 05:30N 59°56' E 028°39'0 0.0
2018-Feb-14 05:00N 59°56' E 028°39'0 0.0
2018-Feb-14 04:30N 59°56' E 028°39'0 0.0
2018-Feb-14 04:00N 59°56' E 028°39'0 0.0
2018-Feb-14 03:30N 59°56' E 028°39'0 0.1
2018-Feb-14 03:00N 59°56' E 028°39'0 0.0
2018-Feb-14 02:30N 59°56' E 028°39'0 0.0
2018-Feb-14 02:00N 59°56' E 028°39'0 0.1
2018-Feb-14 01:30N 59°56' E 028°39'0 0.0
2018-Feb-14 01:00N 59°56' E 028°39'0 0.1
2018-Feb-14 00:21N 59°56' E 028°39'0 0.0
2018-Feb-13 23:51N 59°56' E 028°39'0 0.0
2018-Feb-13 23:18N 59°56' E 028°39'0 0.0
2018-Feb-13 22:51N 59°56' E 028°39'0 0.0
2018-Feb-13 22:24N 59°56' E 028°39'0 0.0
2018-Feb-13 21:54N 59°56' E 028°39'0 0.0
2018-Feb-13 21:24N 59°56' E 028°39'0 0.0
2018-Feb-13 20:54N 59°56' E 028°39'0 0.0
2018-Feb-13 20:24N 59°56' E 028°39'0 0.0
2018-Feb-13 19:54N 59°56' E 028°39'0 0.0
2018-Feb-13 19:24N 59°56' E 028°39'0 0.0
2018-Feb-13 18:54N 59°56' E 028°39'0 0.0
2018-Feb-13 18:24N 59°56' E 028°39'0 0.0
2018-Feb-13 17:51N 59°56' E 028°39'0 0.0
2018-Feb-13 17:24N 59°56' E 028°39'0 0.0
2018-Feb-13 16:57N 59°56' E 028°39'0 0.0
2018-Feb-13 16:27N 59°56' E 028°39'0 0.0
2018-Feb-13 15:54N 59°56' E 028°39'0 0.0
2018-Feb-13 15:27N 59°56' E 028°39'0 0.0
2018-Feb-13 14:57N 59°56' E 028°39'0 0.0
2018-Feb-13 14:27N 59°56' E 028°39'0 0.0
2018-Feb-13 13:57N 59°56' E 028°39'0 0.0
2018-Feb-13 13:27N 59°56' E 028°39'0 0.0
2018-Feb-13 12:57N 59°56' E 028°39'0 0.0
2018-Feb-13 12:27N 59°56' E 028°39'0 0.0
2018-Feb-13 12:00N 59°56' E 028°39'0 0.0
2018-Feb-13 11:30N 59°56' E 028°39'0 0.0
2018-Feb-13 11:00N 59°56' E 028°39'0 0.0
2018-Feb-13 10:30N 59°56' E 028°39'0 0.0
2018-Feb-13 09:57N 59°56' E 028°39'0 0.0
2018-Feb-13 09:30N 59°56' E 028°39'0 0.0
2018-Feb-13 09:00N 59°56' E 028°39'0 0.0
2018-Feb-13 08:30N 59°56' E 028°39'0 0.0
2018-Feb-13 08:00N 59°56' E 028°39'0 0.0
2018-Feb-13 07:30N 59°56' E 028°39'0 0.0
2018-Feb-13 07:00N 59°56' E 028°39'0 0.0
2018-Feb-13 06:30N 59°56' E 028°39'0 0.0
2018-Feb-13 06:00N 59°56' E 028°39'0 0.0
2018-Feb-13 05:30N 59°56' E 028°39'0 0.0
2018-Feb-13 05:00N 59°56' E 028°39'0 0.0
2018-Feb-13 04:30N 59°56' E 028°39'0 0.0
2018-Feb-13 04:00N 59°56' E 028°39'0 0.0
2018-Feb-13 03:30N 59°56' E 028°39'0 0.0
2018-Feb-13 03:00N 59°56' E 028°39'0 0.0
2018-Feb-13 02:30N 59°56' E 028°39'0 0.0
2018-Feb-13 02:00N 59°56' E 028°39'0 0.0
2018-Feb-13 01:30N 59°56' E 028°39'0 0.0
2018-Feb-13 01:00N 59°56' E 028°39'0 0.0
2018-Feb-13 00:30N 59°56' E 028°39'0 0.0
2018-Feb-12 23:51N 59°56' E 028°39'0 0.0
2018-Feb-12 23:21N 59°56' E 028°39'0 0.0
2018-Feb-12 22:48N 59°56' E 028°39'0 0.0
2018-Feb-12 22:21N 59°56' E 028°39'0 0.0
2018-Feb-12 21:51N 59°56' E 028°39'0 0.1
2018-Feb-12 21:24N 59°56' E 028°39'0 0.1
2018-Feb-12 20:54N 59°56' E 028°39'0 0.0
2018-Feb-12 20:24N 59°56' E 028°39'0 0.0
2018-Feb-12 19:54N 59°56' E 028°39'0 0.0
2018-Feb-12 19:24N 59°56' E 028°39'0 0.0
2018-Feb-12 18:53N 59°56' E 028°39'0 0.0
2018-Feb-12 18:23N 59°56' E 028°39'0 0.0
2018-Feb-12 17:53N 59°56' E 028°39'0 0.1
2018-Feb-12 17:23N 59°56' E 028°39'0 0.0
2018-Feb-12 16:53N 59°56' E 028°39'0 0.0
2018-Feb-12 16:26N 59°56' E 028°39'0 0.0
2018-Feb-12 15:56N 59°56' E 028°39'0 0.0
2018-Feb-12 15:11N 59°56' E 028°39'0 0.0
2018-Feb-12 14:56N 59°56' E 028°39'0 0.1
2018-Feb-12 14:26N 59°56' E 028°39'0 0.1
2018-Feb-12 13:56N 59°56' E 028°39'0 0.2
2018-Feb-12 13:26N 59°56' E 028°39'0 0.0
2018-Feb-12 12:56N 59°56' E 028°39'0 0.0
2018-Feb-12 12:26N 59°56' E 028°39'0 0.0
2018-Feb-12 11:56N 59°56' E 028°39'0 0.0
2018-Feb-12 11:29N 59°56' E 028°39'0 0.0
2018-Feb-12 10:59N 59°56' E 028°39'0 0.0
2018-Feb-12 10:29N 59°56' E 028°39'0 0.0
2018-Feb-12 09:59N 59°56' E 028°39'0 0.1
2018-Feb-12 09:26N 59°56' E 028°39'0 0.0
2018-Feb-12 07:59N 59°56' E 028°39'0 0.1
2018-Feb-12 07:14N 59°56' E 028°39'0 0.1
2018-Feb-12 06:59N 59°56' E 028°39'0 0.0
2018-Feb-12 06:14N 59°56' E 028°39'0 0.0
2018-Feb-12 05:59N 59°56' E 028°39'0 0.0
2018-Feb-12 05:29N 59°56' E 028°39'0 0.0
2018-Feb-12 04:41N 59°56' E 028°39'0 0.0
2018-Feb-12 04:29N 59°56' E 028°39'0 0.1
2018-Feb-12 03:59N 59°56' E 028°39'0 0.2
2018-Feb-12 03:29N 59°56' E 028°39'0 0.0
2018-Feb-12 02:59N 59°56' E 028°39'0 0.0
2018-Feb-12 02:29N 59°56' E 028°39'0 0.1
2018-Feb-12 01:59N 59°56' E 028°39'0 0.1
2018-Feb-12 01:29N 59°56' E 028°39'0 0.1
2018-Feb-12 00:59N 59°56' E 028°39'0 0.1
2018-Feb-12 00:29N 59°56' E 028°39'0 0.0
2018-Feb-11 23:59N 59°56' E 028°39'0 0.0
2018-Feb-11 23:29N 59°56' E 028°39'0 0.0
2018-Feb-11 22:50N 59°56' E 028°39'0 0.1
2018-Feb-11 22:20N 59°56' E 028°39'0 0.0
2018-Feb-11 21:50N 59°56' E 028°39'0 0.2
2018-Feb-11 21:20N 59°56' E 028°39'0 0.1
2018-Feb-11 20:47N 59°56' E 028°39'0 0.0
2018-Feb-11 20:23N 59°56' E 028°39'0 0.1
2018-Feb-11 19:53N 59°56' E 028°39'0 0.0
2018-Feb-11 19:23N 59°56' E 028°39'0 0.1
2018-Feb-11 18:08N 59°56' E 028°39'0 0.2
2018-Feb-11 17:53N 59°56' E 028°39'0 0.0
2018-Feb-11 17:23N 59°56' E 028°39'0 0.0
2018-Feb-11 16:53N 59°56' E 028°39'0 0.0
2018-Feb-11 16:23N 59°56' E 028°39'0 0.0
2018-Feb-11 15:53N 59°56' E 028°39'0 0.0
2018-Feb-11 15:26N 59°56' E 028°39'0 0.0
2018-Feb-11 14:56N 59°56' E 028°39'0 0.0
2018-Feb-11 14:26N 59°56' E 028°39'0 0.0
2018-Feb-11 13:53N 59°56' E 028°39'0 0.0
2018-Feb-11 13:26N 59°56' E 028°39'0 0.0
2018-Feb-11 12:56N 59°56' E 028°39'0 0.1
2018-Feb-11 12:26N 59°56' E 028°39'0 0.6
2018-Feb-11 11:59N 59°56' E 028°39'1 2.8
2018-Feb-11 11:30N 59°57' E 028°41'2 4.6
2018-Feb-11 11:00N 59°55' E 028°44'2 4.3
2018-Feb-11 10:28N 59°57' E 028°41'  
Track history (hours):
 
Tides and Currents Weather Stations Pressure Air Temp Water Temp Dewpoint Dewpoint Depression Visibility Wind Speed Wind Dir Waves Ship Positions

Alhani

Last reported at 2018-Feb-21 10:09 UTC. Time now 2018-Feb-22 10:57 UTC.
Position N 51°55' E 004°12'.

Length 249 m; draft 13.8 m.

Type: Ship (hazmat cat C). MMSI: 642122020.

Date/timePositionNaut miles runAvg speedWind from/ knotsBaromVisibWave heightAir tempDewpointWater temp
2018-Feb-21 10:09N 51°55' E 004°12'0 0.0
2018-Feb-21 07:43N 51°55' E 004°12'0 0.0
2018-Feb-21 07:30N 51°55' E 004°12'0 0.4
2018-Feb-21 07:00N 51°55' E 004°12'2 4.6
2018-Feb-21 06:30N 51°57' E 004°10'4 7.9
2018-Feb-21 06:00N 51°59' E 004°04'510.1
2018-Feb-21 05:30N 52°00' E 003°56'420 9.4
2018-Feb-19 08:43N 57°48' E 010°46'2 9.8
2018-Feb-19 08:30N 57°46' E 010°49'3 6.2
2018-Feb-19 08:00N 57°43' E 010°52'4 9.0
2018-Feb-19 07:30N 57°41' E 010°60'511.2
2018-Feb-19 07:00N 57°38' E 011°07'712.1
2018-Feb-19 06:28N 57°33' E 011°16'511.7
2018-Feb-19 06:00N 57°30' E 011°24'511.0
2018-Feb-19 05:30N 57°24' E 011°26'611.7
2018-Feb-19 05:00N 57°19' E 011°31'712.0
2018-Feb-19 04:27N 57°13' E 011°36'12510.7
2018-Feb-18 16:43N 55°10' E 011°01'312.2
2018-Feb-18 16:30N 55°07' E 010°59'612.0
2018-Feb-18 16:00N 55°01' E 010°59'511.1
2018-Feb-18 15:30N 54°57' E 010°54'5 9.6
2018-Feb-18 15:00N 54°52' E 010°50'611.9
2018-Feb-18 14:30N 54°46' E 010°49'611.4
2018-Feb-18 14:00N 54°41' E 010°47'611.6
2018-Feb-18 13:30N 54°38' E 010°56'611.6
2018-Feb-18 13:00N 54°36' E 011°05'612.0
2018-Feb-18 12:30N 54°34' E 011°15'612.1
2018-Feb-18 12:00N 54°32' E 011°25'711.8
2018-Feb-18 11:24N 54°29' E 011°36'611.6
2018-Feb-18 10:55N 54°27' E 011°45'511.6
2018-Feb-18 10:29N 54°26' E 011°54'611.9
2018-Feb-18 10:00N 54°26' E 012°03'83 9.9
2018-Feb-18 01:40N 55°07' E 014°08'312.1
2018-Feb-18 01:24N 55°10' E 014°12'911.6
2018-Feb-18 00:39N 55°16' E 014°22'712.2
2018-Feb-18 00:06N 55°21' E 014°29'512.2
2018-Feb-17 23:43N 55°25' E 014°34'612.1
2018-Feb-17 23:13N 55°28' E 014°44'412.2
2018-Feb-17 22:54N 55°29' E 014°50'712.2
2018-Feb-17 22:19N 55°33' E 015°01'612.1
2018-Feb-17 21:49N 55°36' E 015°10'512.0
2018-Feb-17 21:22N 55°38' E 015°19'412.1
2018-Feb-17 21:00N 55°39' E 015°27'1012.0
2018-Feb-17 20:12N 55°41' E 015°43'212.1
2018-Feb-17 20:00N 55°42' E 015°48'612.1
2018-Feb-17 19:30N 55°44' E 015°58'612.2
2018-Feb-17 19:00N 55°45' E 016°08'612.1
2018-Feb-17 18:30N 55°47' E 016°19'32511.5
2018-Feb-16 14:23N 59°39' E 023°23'512.2
2018-Feb-16 13:58N 59°40' E 023°33'612.4
2018-Feb-16 13:30N 59°42' E 023°44'812.4
2018-Feb-16 12:53N 59°44' E 023°59'1013.3
2018-Feb-16 12:07N 59°47' E 024°18'212.3
2018-Feb-16 11:59N 59°47' E 024°21'612.7
2018-Feb-16 11:29N 59°49' E 024°34'612.2
2018-Feb-16 10:58N 59°50' E 024°46'4412.3
2018-Feb-16 07:21N 59°59' E 026°13'412.2
2018-Feb-16 07:00N 59°60' E 026°21'611.2
2018-Feb-16 06:28N 60°01' E 026°33'511.1
2018-Feb-16 06:00N 60°01' E 026°43'713.0
2018-Feb-16 05:28N 59°60' E 026°57'611.3
2018-Feb-16 04:54N 60°01' E 027°09'511.5
2018-Feb-16 04:28N 60°04' E 027°18'511.0
2018-Feb-16 03:59N 60°06' E 027°27'5 9.9
2018-Feb-16 03:29N 60°09' E 027°35'4 9.1
2018-Feb-16 03:00N 60°11' E 027°43'5 8.8
2018-Feb-16 02:28N 60°11' E 027°53'4 8.8
2018-Feb-16 02:00N 60°10' E 028°01'4 8.2
2018-Feb-16 01:30N 60°09' E 028°09'6 9.5
2018-Feb-16 00:54N 60°07' E 028°20'3 7.6
2018-Feb-16 00:28N 60°05' E 028°25'5 9.7
2018-Feb-15 23:56N 60°03' E 028°34'4 9.1
2018-Feb-15 23:30N 59°59' E 028°36'4 7.5
2018-Feb-15 23:00N 59°56' E 028°34'4 7.1
2018-Feb-15 22:30N 59°53' E 028°30'510.7
2018-Feb-15 22:00N 59°48' E 028°25'4 7.5
2018-Feb-15 21:30N 59°44' E 028°25'2 3.5
2018-Feb-15 21:00N 59°42' E 028°26'0 0.1
2018-Feb-15 20:28N 59°42' E 028°26'0 0.0
2018-Feb-15 19:59N 59°42' E 028°26'0 0.0
2018-Feb-15 19:29N 59°42' E 028°26'0 0.0
2018-Feb-15 18:59N 59°42' E 028°26'0 0.0
2018-Feb-15 18:17N 59°42' E 028°26'0 0.0
2018-Feb-15 17:50N 59°42' E 028°26'0 0.0
2018-Feb-15 17:20N 59°42' E 028°26'0 0.0
2018-Feb-15 16:50N 59°42' E 028°26'0 0.0
2018-Feb-15 16:20N 59°42' E 028°26'0 0.0
2018-Feb-15 15:53N 59°42' E 028°26'0 0.0
2018-Feb-15 15:23N 59°42' E 028°26'0 0.0
2018-Feb-15 14:47N 59°42' E 028°26'0 0.0
2018-Feb-15 14:23N 59°42' E 028°26'0 0.0
2018-Feb-15 13:53N 59°42' E 028°26'0 0.0
2018-Feb-15 13:20N 59°42' E 028°26'0 0.0
2018-Feb-15 12:53N 59°42' E 028°26'0 0.0
2018-Feb-15 12:23N 59°42' E 028°26'0 0.0
2018-Feb-15 11:53N 59°42' E 028°26'0 0.0
2018-Feb-15 11:23N 59°42' E 028°26'0 0.0
2018-Feb-15 10:56N 59°42' E 028°26'0 0.0
2018-Feb-15 10:11N 59°42' E 028°26'0 0.0
2018-Feb-15 09:56N 59°42' E 028°26'0 0.0
2018-Feb-15 09:26N 59°42' E 028°26'0 0.0
2018-Feb-15 08:53N 59°42' E 028°26'0 0.0
2018-Feb-15 08:26N 59°42' E 028°26'0 0.0
2018-Feb-15 07:56N 59°42' E 028°26'0 0.0
2018-Feb-15 07:26N 59°42' E 028°26'0 0.0
2018-Feb-15 06:56N 59°42' E 028°26'0 0.0
2018-Feb-15 06:23N 59°42' E 028°26'0 0.0
2018-Feb-15 05:59N 59°42' E 028°26'0 0.0
2018-Feb-15 05:29N 59°42' E 028°26'0 0.0
2018-Feb-15 04:59N 59°42' E 028°26'0 0.0
2018-Feb-15 04:26N 59°42' E 028°26'0 0.0
2018-Feb-15 03:59N 59°42' E 028°26'0 0.0
2018-Feb-15 03:29N 59°42' E 028°26'0 0.0
2018-Feb-15 02:59N 59°42' E 028°26'0 0.0
2018-Feb-15 02:29N 59°42' E 028°26'0 0.0
2018-Feb-15 01:58N 59°42' E 028°26'0 0.0
2018-Feb-15 01:28N 59°42' E 028°26'0 0.0
2018-Feb-15 00:58N 59°42' E 028°26'0 0.0
2018-Feb-15 00:28N 59°42' E 028°26'0 0.0
2018-Feb-14 23:58N 59°42' E 028°26'0 0.0
2018-Feb-14 23:28N 59°42' E 028°26'0 0.0
2018-Feb-14 22:58N 59°42' E 028°26'0 0.0
2018-Feb-14 22:28N 59°42' E 028°26'0 0.0
2018-Feb-14 21:58N 59°42' E 028°26'0 0.0
2018-Feb-14 21:28N 59°42' E 028°26'0 0.0
2018-Feb-14 20:58N 59°42' E 028°26'0 0.0
2018-Feb-14 20:28N 59°42' E 028°26'0 0.0
2018-Feb-14 19:58N 59°42' E 028°26'0 0.0
2018-Feb-14 19:28N 59°42' E 028°26'0 0.0
2018-Feb-14 18:58N 59°42' E 028°26'0 0.0
2018-Feb-14 18:28N 59°42' E 028°26'0 0.0
2018-Feb-14 17:58N 59°42' E 028°26'0 0.0
2018-Feb-14 17:19N 59°42' E 028°26'0 0.0
2018-Feb-14 16:49N 59°42' E 028°26'0 0.0
2018-Feb-14 16:19N 59°42' E 028°26'0 0.0
2018-Feb-14 15:49N 59°42' E 028°26'0 0.0
2018-Feb-14 15:19N 59°42' E 028°26'0 0.0
2018-Feb-14 14:52N 59°42' E 028°26'0 0.0
2018-Feb-14 14:25N 59°42' E 028°26'0 0.1
2018-Feb-14 14:00N 59°42' E 028°26'1 2.1
2018-Feb-14 13:30N 59°41' E 028°24'3 6.3
2018-Feb-14 13:00N 59°45' E 028°24'5 9.9
2018-Feb-14 12:30N 59°49' E 028°25'611.6
2018-Feb-14 12:00N 59°54' E 028°31'4 7.9
2018-Feb-14 11:30N 59°56' E 028°39'0 0.3
2018-Feb-14 09:58N 59°56' E 028°39'0 0.0
2018-Feb-14 09:16N 59°56' E 028°39'0 0.0
2018-Feb-14 08:46N 59°56' E 028°39'0 0.0
2018-Feb-14 08:28N 59°56' E 028°39'0 0.0
2018-Feb-14 07:58N 59°56' E 028°39'0 0.0
2018-Feb-14 07:31N 59°56' E 028°39'0 0.0
2018-Feb-14 06:46N 59°56' E 028°39'0 0.0
2018-Feb-14 06:12N 59°56' E 028°39'0 0.0
2018-Feb-14 06:00N 59°56' E 028°39'0 0.0
2018-Feb-14 05:30N 59°56' E 028°39'0 0.0
2018-Feb-14 05:00N 59°56' E 028°39'0 0.0
2018-Feb-14 04:30N 59°56' E 028°39'0 0.0
2018-Feb-14 04:00N 59°56' E 028°39'0 0.0
2018-Feb-14 03:30N 59°56' E 028°39'0 0.1
2018-Feb-14 03:00N 59°56' E 028°39'0 0.0
2018-Feb-14 02:30N 59°56' E 028°39'0 0.0
2018-Feb-14 02:00N 59°56' E 028°39'0 0.1
2018-Feb-14 01:30N 59°56' E 028°39'0 0.0
2018-Feb-14 01:00N 59°56' E 028°39'0 0.1
2018-Feb-14 00:21N 59°56' E 028°39'0 0.0
2018-Feb-13 23:51N 59°56' E 028°39'0 0.0
2018-Feb-13 23:18N 59°56' E 028°39'0 0.0
2018-Feb-13 22:51N 59°56' E 028°39'0 0.0
2018-Feb-13 22:24N 59°56' E 028°39'0 0.0
2018-Feb-13 21:54N 59°56' E 028°39'0 0.0
2018-Feb-13 21:24N 59°56' E 028°39'0 0.0
2018-Feb-13 20:54N 59°56' E 028°39'0 0.0
2018-Feb-13 20:24N 59°56' E 028°39'0 0.0
2018-Feb-13 19:54N 59°56' E 028°39'0 0.0
2018-Feb-13 19:24N 59°56' E 028°39'0 0.0
2018-Feb-13 18:54N 59°56' E 028°39'0 0.0
2018-Feb-13 18:24N 59°56' E 028°39'0 0.0
2018-Feb-13 17:51N 59°56' E 028°39'0 0.0
2018-Feb-13 17:24N 59°56' E 028°39'0 0.0
2018-Feb-13 16:57N 59°56' E 028°39'0 0.0
2018-Feb-13 16:27N 59°56' E 028°39'0 0.0
2018-Feb-13 15:54N 59°56' E 028°39'0 0.0
2018-Feb-13 15:27N 59°56' E 028°39'0 0.0
2018-Feb-13 14:57N 59°56' E 028°39'0 0.0
2018-Feb-13 14:27N 59°56' E 028°39'0 0.0
2018-Feb-13 13:57N 59°56' E 028°39'0 0.0
2018-Feb-13 13:27N 59°56' E 028°39'0 0.0
2018-Feb-13 12:57N 59°56' E 028°39'0 0.0
2018-Feb-13 12:27N 59°56' E 028°39'0 0.0
2018-Feb-13 12:00N 59°56' E 028°39'0 0.0
2018-Feb-13 11:30N 59°56' E 028°39'0 0.0
2018-Feb-13 11:00N 59°56' E 028°39'0 0.0
2018-Feb-13 10:30N 59°56' E 028°39'0 0.0
2018-Feb-13 09:57N 59°56' E 028°39'0 0.0
2018-Feb-13 09:30N 59°56' E 028°39'0 0.0
2018-Feb-13 09:00N 59°56' E 028°39'0 0.0
2018-Feb-13 08:30N 59°56' E 028°39'0 0.0
2018-Feb-13 08:00N 59°56' E 028°39'0 0.0
2018-Feb-13 07:30N 59°56' E 028°39'0 0.0
2018-Feb-13 07:00N 59°56' E 028°39'0 0.0
2018-Feb-13 06:30N 59°56' E 028°39'0 0.0
2018-Feb-13 06:00N 59°56' E 028°39'0 0.0
2018-Feb-13 05:30N 59°56' E 028°39'0 0.0
2018-Feb-13 05:00N 59°56' E 028°39'0 0.0
2018-Feb-13 04:30N 59°56' E 028°39'0 0.0
2018-Feb-13 04:00N 59°56' E 028°39'0 0.0
2018-Feb-13 03:30N 59°56' E 028°39'0 0.0
2018-Feb-13 03:00N 59°56' E 028°39'0 0.0
2018-Feb-13 02:30N 59°56' E 028°39'0 0.0
2018-Feb-13 02:00N 59°56' E 028°39'0 0.0
2018-Feb-13 01:30N 59°56' E 028°39'0 0.0
2018-Feb-13 01:00N 59°56' E 028°39'0 0.0
2018-Feb-13 00:30N 59°56' E 028°39'0 0.0
2018-Feb-12 23:51N 59°56' E 028°39'0 0.0
2018-Feb-12 23:21N 59°56' E 028°39'0 0.0
2018-Feb-12 22:48N 59°56' E 028°39'0 0.0
2018-Feb-12 22:21N 59°56' E 028°39'0 0.0
2018-Feb-12 21:51N 59°56' E 028°39'0 0.1
2018-Feb-12 21:24N 59°56' E 028°39'0 0.1
2018-Feb-12 20:54N 59°56' E 028°39'0 0.0
2018-Feb-12 20:24N 59°56' E 028°39'0 0.0
2018-Feb-12 19:54N 59°56' E 028°39'0 0.0
2018-Feb-12 19:24N 59°56' E 028°39'0 0.0
2018-Feb-12 18:53N 59°56' E 028°39'0 0.0
2018-Feb-12 18:23N 59°56' E 028°39'0 0.0
2018-Feb-12 17:53N 59°56' E 028°39'0 0.1
2018-Feb-12 17:23N 59°56' E 028°39'0 0.0
2018-Feb-12 16:53N 59°56' E 028°39'0 0.0
2018-Feb-12 16:26N 59°56' E 028°39'0 0.0
2018-Feb-12 15:56N 59°56' E 028°39'0 0.0
2018-Feb-12 15:11N 59°56' E 028°39'0 0.0
2018-Feb-12 14:56N 59°56' E 028°39'0 0.1
2018-Feb-12 14:26N 59°56' E 028°39'0 0.1
2018-Feb-12 13:56N 59°56' E 028°39'0 0.2
2018-Feb-12 13:26N 59°56' E 028°39'0 0.0
2018-Feb-12 12:56N 59°56' E 028°39'0 0.0
2018-Feb-12 12:26N 59°56' E 028°39'0 0.0
2018-Feb-12 11:56N 59°56' E 028°39'0 0.0
2018-Feb-12 11:29N 59°56' E 028°39'0 0.0
2018-Feb-12 10:59N 59°56' E 028°39'0 0.0
2018-Feb-12 10:29N 59°56' E 028°39'0 0.0
2018-Feb-12 09:59N 59°56' E 028°39'0 0.1
2018-Feb-12 09:26N 59°56' E 028°39'0 0.0
2018-Feb-12 07:59N 59°56' E 028°39'0 0.1
2018-Feb-12 07:14N 59°56' E 028°39'0 0.1
2018-Feb-12 06:59N 59°56' E 028°39'0 0.0
2018-Feb-12 06:14N 59°56' E 028°39'0 0.0
2018-Feb-12 05:59N 59°56' E 028°39'0 0.0
2018-Feb-12 05:29N 59°56' E 028°39'0 0.0
2018-Feb-12 04:41N 59°56' E 028°39'0 0.0
2018-Feb-12 04:29N 59°56' E 028°39'0 0.1
2018-Feb-12 03:59N 59°56' E 028°39'0 0.2
2018-Feb-12 03:29N 59°56' E 028°39'0 0.0
2018-Feb-12 02:59N 59°56' E 028°39'0 0.0
2018-Feb-12 02:29N 59°56' E 028°39'0 0.1
2018-Feb-12 01:59N 59°56' E 028°39'0 0.1
2018-Feb-12 01:29N 59°56' E 028°39'0 0.1
2018-Feb-12 00:59N 59°56' E 028°39'0 0.1
2018-Feb-12 00:29N 59°56' E 028°39'0 0.0
2018-Feb-11 23:59N 59°56' E 028°39'0 0.0
2018-Feb-11 23:29N 59°56' E 028°39'0 0.0
2018-Feb-11 22:50N 59°56' E 028°39'0 0.1
2018-Feb-11 22:20N 59°56' E 028°39'0 0.0
2018-Feb-11 21:50N 59°56' E 028°39'0 0.2
2018-Feb-11 21:20N 59°56' E 028°39'0 0.1
2018-Feb-11 20:47N 59°56' E 028°39'0 0.0
2018-Feb-11 20:23N 59°56' E 028°39'0 0.1
2018-Feb-11 19:53N 59°56' E 028°39'0 0.0
2018-Feb-11 19:23N 59°56' E 028°39'0 0.1
2018-Feb-11 18:08N 59°56' E 028°39'0 0.2
2018-Feb-11 17:53N 59°56' E 028°39'0 0.0
2018-Feb-11 17:23N 59°56' E 028°39'0 0.0
2018-Feb-11 16:53N 59°56' E 028°39'0 0.0
2018-Feb-11 16:23N 59°56' E 028°39'0 0.0
2018-Feb-11 15:53N 59°56' E 028°39'0 0.0
2018-Feb-11 15:26N 59°56' E 028°39'0 0.0
2018-Feb-11 14:56N 59°56' E 028°39'0 0.0
2018-Feb-11 14:26N 59°56' E 028°39'0 0.0
2018-Feb-11 13:53N 59°56' E 028°39'0 0.0
2018-Feb-11 13:26N 59°56' E 028°39'0 0.0
2018-Feb-11 12:56N 59°56' E 028°39'0 0.1
2018-Feb-11 12:26N 59°56' E 028°39'0 0.6
2018-Feb-11 11:59N 59°56' E 028°39'1 2.8
2018-Feb-11 11:30N 59°57' E 028°41'2 4.6
2018-Feb-11 11:00N 59°55' E 028°44'2 4.3
2018-Feb-11 10:28N 59°57' E 028°41'  

Dump ship's entire track history